sensor_id;sensor_type;location;lat;lon;timestamp;pressure;altitude;pressure_sealevel;temperature;humidity
32933;BME280;19444;50.518;10.870;2023-05-20T00:02:30;96976.16;;;13.18;100.00
32933;BME280;19444;50.518;10.870;2023-05-20T00:05:27;96963.25;;;13.37;100.00
32933;BME280;19444;50.518;10.870;2023-05-20T00:08:24;96964.88;;;13.47;100.00
32933;BME280;19444;50.518;10.870;2023-05-20T00:11:21;96963.91;;;13.52;100.00
32933;BME280;19444;50.518;10.870;2023-05-20T00:14:18;96963.56;;;13.27;100.00
32933;BME280;19444;50.518;10.870;2023-05-20T00:17:14;96967.81;;;13.20;100.00
32933;BME280;19444;50.518;10.870;2023-05-20T00:20:11;96952.22;;;13.56;100.00
32933;BME280;19444;50.518;10.870;2023-05-20T00:23:08;96951.50;;;13.25;100.00
32933;BME280;19444;50.518;10.870;2023-05-20T00:26:05;96960.53;;;13.20;100.00
32933;BME280;19444;50.518;10.870;2023-05-20T00:29:02;96959.94;;;12.92;100.00
32933;BME280;19444;50.518;10.870;2023-05-20T00:31:59;96958.06;;;13.01;100.00
32933;BME280;19444;50.518;10.870;2023-05-20T00:34:57;96956.94;;;12.94;100.00
32933;BME280;19444;50.518;10.870;2023-05-20T00:37:54;96958.88;;;13.10;100.00
32933;BME280;19444;50.518;10.870;2023-05-20T00:40:51;96950.00;;;13.01;100.00
32933;BME280;19444;50.518;10.870;2023-05-20T00:43:53;96954.88;;;12.91;100.00
32933;BME280;19444;50.518;10.870;2023-05-20T00:46:50;96952.94;;;12.82;100.00
32933;BME280;19444;50.518;10.870;2023-05-20T00:49:49;96954.53;;;12.84;100.00
32933;BME280;19444;50.518;10.870;2023-05-20T00:52:47;96955.50;;;12.96;100.00
32933;BME280;19444;50.518;10.870;2023-05-20T00:55:47;96950.47;;;13.03;100.00
32933;BME280;19444;50.518;10.870;2023-05-20T00:58:44;96946.03;;;12.99;100.00
32933;BME280;19444;50.518;10.870;2023-05-20T01:01:41;96944.09;;;13.30;100.00
32933;BME280;19444;50.518;10.870;2023-05-20T01:04:38;96935.78;;;13.09;100.00
32933;BME280;19444;50.518;10.870;2023-05-20T01:07:35;96942.53;;;12.98;100.00
32933;BME280;19444;50.518;10.870;2023-05-20T01:10:33;96932.25;;;12.92;100.00
32933;BME280;19444;50.518;10.870;2023-05-20T01:13:53;96937.94;;;13.47;100.00
32933;BME280;19444;50.518;10.870;2023-05-20T01:16:51;96942.44;;;13.12;100.00
32933;BME280;19444;50.518;10.870;2023-05-20T01:19:49;96941.63;;;12.63;100.00
32933;BME280;19444;50.518;10.870;2023-05-20T01:22:48;96941.66;;;12.72;100.00
32933;BME280;19444;50.518;10.870;2023-05-20T01:25:48;96924.75;;;12.80;100.00
32933;BME280;19444;50.518;10.870;2023-05-20T01:28:45;96921.78;;;12.90;100.00
32933;BME280;19444;50.518;10.870;2023-05-20T01:31:42;96926.97;;;12.78;100.00
32933;BME280;19444;50.518;10.870;2023-05-20T01:34:40;96930.03;;;12.54;100.00
32933;BME280;19444;50.518;10.870;2023-05-20T01:37:39;96933.28;;;12.73;100.00
32933;BME280;19444;50.518;10.870;2023-05-20T01:40:37;96932.63;;;13.07;100.00
32933;BME280;19444;50.518;10.870;2023-05-20T01:43:35;96938.66;;;12.73;100.00
32933;BME280;19444;50.518;10.870;2023-05-20T01:46:33;96930.19;;;12.58;100.00
32933;BME280;19444;50.518;10.870;2023-05-20T01:49:30;96938.66;;;12.73;100.00
32933;BME280;19444;50.518;10.870;2023-05-20T01:52:28;96928.78;;;12.60;100.00
32933;BME280;19444;50.518;10.870;2023-05-20T01:55:25;96927.13;;;12.73;100.00
32933;BME280;19444;50.518;10.870;2023-05-20T01:58:21;96930.03;;;12.54;100.00
32933;BME280;19444;50.518;10.870;2023-05-20T02:01:18;96937.63;;;12.61;100.00
32933;BME280;19444;50.518;10.870;2023-05-20T02:04:15;96932.53;;;12.81;100.00
32933;BME280;19444;50.518;10.870;2023-05-20T02:07:15;96935.31;;;13.07;100.00
32933;BME280;19444;50.518;10.870;2023-05-20T02:10:14;96936.69;;;12.57;100.00
32933;BME280;19444;50.518;10.870;2023-05-20T02:13:11;96936.44;;;12.75;100.00
32933;BME280;19444;50.518;10.870;2023-05-20T02:16:08;96934.94;;;12.61;100.00
32933;BME280;19444;50.518;10.870;2023-05-20T02:19:05;96927.38;;;12.63;100.00
32933;BME280;19444;50.518;10.870;2023-05-20T02:22:02;96931.66;;;12.64;100.00
32933;BME280;19444;50.518;10.870;2023-05-20T02:24:59;96933.06;;;12.61;100.00
32933;BME280;19444;50.518;10.870;2023-05-20T02:27:56;96934.16;;;12.60;100.00
32933;BME280;19444;50.518;10.870;2023-05-20T02:30:52;96935.97;;;12.42;100.00
32933;BME280;19444;50.518;10.870;2023-05-20T02:33:49;96926.25;;;12.55;100.00
32933;BME280;19444;50.518;10.870;2023-05-20T02:36:46;96933.50;;;12.23;100.00
32933;BME280;19444;50.518;10.870;2023-05-20T02:39:43;96930.38;;;12.30;100.00
32933;BME280;19444;50.518;10.870;2023-05-20T02:42:40;96932.53;;;12.50;100.00
32933;BME280;19444;50.518;10.870;2023-05-20T02:45:37;96923.47;;;12.38;100.00
32933;BME280;19444;50.518;10.870;2023-05-20T02:48:34;96915.81;;;12.53;100.00
32933;BME280;19444;50.518;10.870;2023-05-20T02:51:31;96915.59;;;12.50;100.00
32933;BME280;19444;50.518;10.870;2023-05-20T02:54:29;96903.94;;;12.55;100.00
32933;BME280;19444;50.518;10.870;2023-05-20T02:57:26;96898.72;;;12.58;100.00
32933;BME280;19444;50.518;10.870;2023-05-20T03:00:24;96898.44;;;12.68;100.00
32933;BME280;19444;50.518;10.870;2023-05-20T03:03:21;96899.63;;;12.45;100.00
32933;BME280;19444;50.518;10.870;2023-05-20T03:06:18;96901.03;;;12.42;100.00
32933;BME280;19444;50.518;10.870;2023-05-20T03:09:15;96899.91;;;12.35;100.00
32933;BME280;19444;50.518;10.870;2023-05-20T03:12:12;96899.28;;;12.38;100.00
32933;BME280;19444;50.518;10.870;2023-05-20T03:15:09;96896.34;;;12.17;100.00
32933;BME280;19444;50.518;10.870;2023-05-20T03:18:07;96905.00;;;12.45;100.00
32933;BME280;19444;50.518;10.870;2023-05-20T03:21:06;96893.94;;;12.15;100.00
32933;BME280;19444;50.518;10.870;2023-05-20T03:24:04;96899.84;;;12.26;100.00
32933;BME280;19444;50.518;10.870;2023-05-20T03:27:01;96902.91;;;12.11;100.00
32933;BME280;19444;50.518;10.870;2023-05-20T03:29:58;96906.03;;;12.04;100.00
32933;BME280;19444;50.518;10.870;2023-05-20T03:32:55;96898.75;;;12.27;100.00
32933;BME280;19444;50.518;10.870;2023-05-20T03:35:55;96914.50;;;11.98;100.00
32933;BME280;19444;50.518;10.870;2023-05-20T03:38:52;96909.41;;;12.10;100.00
32933;BME280;19444;50.518;10.870;2023-05-20T03:41:48;96911.34;;;12.18;100.00
32933;BME280;19444;50.518;10.870;2023-05-20T03:44:45;96917.94;;;12.12;100.00
32933;BME280;19444;50.518;10.870;2023-05-20T03:47:42;96909.19;;;12.29;100.00
32933;BME280;19444;50.518;10.870;2023-05-20T03:50:39;96905.00;;;11.91;100.00
32933;BME280;19444;50.518;10.870;2023-05-20T03:53:36;96913.78;;;12.06;100.00
32933;BME280;19444;50.518;10.870;2023-05-20T03:56:33;96907.81;;;12.09;100.00
32933;BME280;19444;50.518;10.870;2023-05-20T03:59:30;96912.19;;;12.27;100.00
32933;BME280;19444;50.518;10.870;2023-05-20T04:02:27;96922.84;;;12.10;100.00
32933;BME280;19444;50.518;10.870;2023-05-20T04:05:24;96920.41;;;12.00;100.00
32933;BME280;19444;50.518;10.870;2023-05-20T04:08:21;96919.22;;;12.14;100.00
32933;BME280;19444;50.518;10.870;2023-05-20T04:11:21;96920.13;;;11.87;100.00
32933;BME280;19444;50.518;10.870;2023-05-20T04:14:18;96921.94;;;11.78;100.00
32933;BME280;19444;50.518;10.870;2023-05-20T04:17:15;96915.97;;;12.04;100.00
32933;BME280;19444;50.518;10.870;2023-05-20T04:20:12;96914.50;;;11.98;100.00
32933;BME280;19444;50.518;10.870;2023-05-20T04:23:09;96925.94;;;12.03;100.00
32933;BME280;19444;50.518;10.870;2023-05-20T04:26:06;96925.47;;;12.01;100.00
32933;BME280;19444;50.518;10.870;2023-05-20T04:29:03;96932.94;;;12.13;100.00
32933;BME280;19444;50.518;10.870;2023-05-20T04:32:00;96927.28;;;12.14;100.00
32933;BME280;19444;50.518;10.870;2023-05-20T04:34:57;96921.94;;;12.23;100.00
32933;BME280;19444;50.518;10.870;2023-05-20T04:37:55;96938.69;;;12.20;100.00
32933;BME280;19444;50.518;10.870;2023-05-20T04:40:52;96920.16;;;12.10;100.00
32933;BME280;19444;50.518;10.870;2023-05-20T04:43:49;96935.31;;;12.14;100.00
32933;BME280;19444;50.518;10.870;2023-05-20T04:46:46;96929.75;;;12.33;100.00
32933;BME280;19444;50.518;10.870;2023-05-20T04:49:43;96932.53;;;12.19;100.00
32933;BME280;19444;50.518;10.870;2023-05-20T04:52:41;96914.13;;;12.35;100.00
32933;BME280;19444;50.518;10.870;2023-05-20T04:55:39;96910.34;;;12.14;100.00
32933;BME280;19444;50.518;10.870;2023-05-20T04:58:37;96923.25;;;12.03;100.00
32933;BME280;19444;50.518;10.870;2023-05-20T05:01:33;96916.66;;;12.40;100.00
32933;BME280;19444;50.518;10.870;2023-05-20T05:04:30;96923.00;;;12.13;100.00
32933;BME280;19444;50.518;10.870;2023-05-20T05:07:27;96912.31;;;12.22;100.00
32933;BME280;19444;50.518;10.870;2023-05-20T05:10:24;96917.41;;;12.01;100.00
32933;BME280;19444;50.518;10.870;2023-05-20T05:13:21;96914.69;;;12.23;100.00
32933;BME280;19444;50.518;10.870;2023-05-20T05:16:18;96923.09;;;12.00;100.00
32933;BME280;19444;50.518;10.870;2023-05-20T05:19:15;96923.47;;;12.15;100.00
32933;BME280;19444;50.518;10.870;2023-05-20T05:22:12;96912.09;;;12.41;100.00
32933;BME280;19444;50.518;10.870;2023-05-20T05:25:10;96920.88;;;12.02;100.00
32933;BME280;19444;50.518;10.870;2023-05-20T05:28:07;96916.84;;;12.13;100.00
32933;BME280;19444;50.518;10.870;2023-05-20T05:31:04;96917.63;;;12.36;100.00
32933;BME280;19444;50.518;10.870;2023-05-20T05:34:02;96904.41;;;12.57;100.00
32933;BME280;19444;50.518;10.870;2023-05-20T05:36:59;96915.47;;;12.24;100.00
32933;BME280;19444;50.518;10.870;2023-05-20T05:39:55;96912.63;;;12.20;100.00
32933;BME280;19444;50.518;10.870;2023-05-20T05:42:52;96917.56;;;12.58;100.00
32933;BME280;19444;50.518;10.870;2023-05-20T05:45:49;96918.72;;;12.12;100.00
32933;BME280;19444;50.518;10.870;2023-05-20T05:48:47;96918.25;;;12.10;100.00
32933;BME280;19444;50.518;10.870;2023-05-20T05:51:46;96911.19;;;12.23;100.00
32933;BME280;19444;50.518;10.870;2023-05-20T05:54:42;96916.66;;;12.40;100.00
32933;BME280;19444;50.518;10.870;2023-05-20T05:57:39;96919.84;;;12.42;100.00
32933;BME280;19444;50.518;10.870;2023-05-20T06:00:36;96916.88;;;12.44;100.00
32933;BME280;19444;50.518;10.870;2023-05-20T06:03:33;96909.03;;;12.34;100.00
32933;BME280;19444;50.518;10.870;2023-05-20T06:06:33;96910.88;;;12.47;100.00
32933;BME280;19444;50.518;10.870;2023-05-20T06:09:34;96910.47;;;12.62;100.00
32933;BME280;19444;50.518;10.870;2023-05-20T06:12:31;96908.28;;;12.73;100.00
32933;BME280;19444;50.518;10.870;2023-05-20T06:15:28;96902.97;;;12.90;100.00
32933;BME280;19444;50.518;10.870;2023-05-20T06:18:25;96906.78;;;12.58;100.00
32933;BME280;19444;50.518;10.870;2023-05-20T06:21:22;96898.16;;;12.78;100.00
32933;BME280;19444;50.518;10.870;2023-05-20T06:24:19;96914.25;;;12.70;100.00
32933;BME280;19444;50.518;10.870;2023-05-20T06:27:20;96909.66;;;12.62;100.00
32933;BME280;19444;50.518;10.870;2023-05-20T06:30:17;96915.88;;;12.79;100.00
32933;BME280;19444;50.518;10.870;2023-05-20T06:33:14;96912.94;;;12.98;100.00
32933;BME280;19444;50.518;10.870;2023-05-20T06:36:11;96915.09;;;12.79;100.00
32933;BME280;19444;50.518;10.870;2023-05-20T06:39:07;96907.47;;;12.64;100.00
32933;BME280;19444;50.518;10.870;2023-05-20T06:42:08;96898.59;;;12.63;100.00
32933;BME280;19444;50.518;10.870;2023-05-20T06:45:05;96890.28;;;12.82;100.00
32933;BME280;19444;50.518;10.870;2023-05-20T06:48:02;96891.19;;;12.69;100.00
32933;BME280;19444;50.518;10.870;2023-05-20T06:50:59;96907.53;;;12.50;100.00
32933;BME280;19444;50.518;10.870;2023-05-20T06:53:56;96903.53;;;12.78;100.00
32933;BME280;19444;50.518;10.870;2023-05-20T06:56:53;96907.50;;;12.72;100.00
32933;BME280;19444;50.518;10.870;2023-05-20T06:59:50;96895.69;;;12.91;100.00
32933;BME280;19444;50.518;10.870;2023-05-20T07:02:47;96882.91;;;13.14;100.00
32933;BME280;19444;50.518;10.870;2023-05-20T07:05:44;96882.84;;;12.88;100.00
32933;BME280;19444;50.518;10.870;2023-05-20T07:08:41;96886.09;;;12.67;100.00
32933;BME280;19444;50.518;10.870;2023-05-20T07:11:38;96875.53;;;12.79;100.00
32933;BME280;19444;50.518;10.870;2023-05-20T07:14:35;96874.00;;;12.96;100.00
32933;BME280;19444;50.518;10.870;2023-05-20T07:17:32;96868.25;;;12.80;100.00
32933;BME280;19444;50.518;10.870;2023-05-20T07:20:29;96849.78;;;12.87;100.00
32933;BME280;19444;50.518;10.870;2023-05-20T07:23:26;96851.03;;;12.72;100.00
32933;BME280;19444;50.518;10.870;2023-05-20T07:26:23;96845.94;;;12.71;100.00
32933;BME280;19444;50.518;10.870;2023-05-20T07:29:20;96843.81;;;13.07;100.00
32933;BME280;19444;50.518;10.870;2023-05-20T07:32:17;96830.72;;;13.32;100.00
32933;BME280;19444;50.518;10.870;2023-05-20T07:35:14;96842.41;;;13.19;100.00
32933;BME280;19444;50.518;10.870;2023-05-20T07:38:11;96838.31;;;13.38;100.00
32933;BME280;19444;50.518;10.870;2023-05-20T07:41:08;96842.13;;;13.46;100.00
32933;BME280;19444;50.518;10.870;2023-05-20T07:44:05;96831.81;;;13.40;100.00
32933;BME280;19444;50.518;10.870;2023-05-20T07:47:04;96833.09;;;13.33;100.00
32933;BME280;19444;50.518;10.870;2023-05-20T07:50:01;96824.19;;;13.76;100.00
32933;BME280;19444;50.518;10.870;2023-05-20T07:52:58;96830.53;;;13.72;100.00
32933;BME280;19444;50.518;10.870;2023-05-20T07:55:55;96819.09;;;13.83;100.00
32933;BME280;19444;50.518;10.870;2023-05-20T07:58:58;96820.81;;;13.88;100.00
32933;BME280;19444;50.518;10.870;2023-05-20T08:01:55;96818.16;;;13.71;100.00
32933;BME280;19444;50.518;10.870;2023-05-20T08:04:52;96823.94;;;14.07;100.00
32933;BME280;19444;50.518;10.870;2023-05-20T08:07:50;96827.53;;;14.29;100.00
32933;BME280;19444;50.518;10.870;2023-05-20T08:10:47;96836.06;;;14.39;100.00
32933;BME280;19444;50.518;10.870;2023-05-20T08:13:44;96827.19;;;14.47;100.00
32933;BME280;19444;50.518;10.870;2023-05-20T08:16:41;96831.50;;;14.69;100.00
32933;BME280;19444;50.518;10.870;2023-05-20T08:19:39;96822.97;;;14.88;100.00
32933;BME280;19444;50.518;10.870;2023-05-20T08:22:36;96815.59;;;14.76;100.00
32933;BME280;19444;50.518;10.870;2023-05-20T08:25:33;96833.66;;;14.85;100.00
32933;BME280;19444;50.518;10.870;2023-05-20T08:28:31;96827.94;;;15.07;100.00
32933;BME280;19444;50.518;10.870;2023-05-20T08:31:28;96836.19;;;14.81;100.00
32933;BME280;19444;50.518;10.870;2023-05-20T08:34:25;96827.78;;;14.83;100.00
32933;BME280;19444;50.518;10.870;2023-05-20T08:37:22;96831.88;;;14.89;100.00
32933;BME280;19444;50.518;10.870;2023-05-20T08:40:20;96834.50;;;14.97;100.00
32933;BME280;19444;50.518;10.870;2023-05-20T08:43:17;96839.75;;;14.73;100.00
32933;BME280;19444;50.518;10.870;2023-05-20T08:46:15;96836.56;;;15.00;100.00
32933;BME280;19444;50.518;10.870;2023-05-20T08:49:14;96840.38;;;14.99;100.00
32933;BME280;19444;50.518;10.870;2023-05-20T08:52:12;96822.00;;;14.93;100.00
32933;BME280;19444;50.518;10.870;2023-05-20T08:55:36;96842.03;;;14.54;100.00
32933;BME280;19444;50.518;10.870;2023-05-20T08:58:34;96837.72;;;14.61;100.00
32933;BME280;19444;50.518;10.870;2023-05-20T09:01:31;96836.69;;;14.83;100.00
32933;BME280;19444;50.518;10.870;2023-05-20T09:04:29;96830.91;;;15.14;100.00
32933;BME280;19444;50.518;10.870;2023-05-20T09:07:27;96829.22;;;14.80;100.00
32933;BME280;19444;50.518;10.870;2023-05-20T09:10:24;96840.84;;;15.22;100.00
32933;BME280;19444;50.518;10.870;2023-05-20T09:13:23;96835.50;;;15.34;100.00
32933;BME280;19444;50.518;10.870;2023-05-20T09:16:20;96830.03;;;15.43;100.00
32933;BME280;19444;50.518;10.870;2023-05-20T09:19:21;96836.72;;;15.46;100.00
32933;BME280;19444;50.518;10.870;2023-05-20T09:22:25;96841.31;;;15.03;100.00
32933;BME280;19444;50.518;10.870;2023-05-20T09:25:22;96845.63;;;15.46;100.00
32933;BME280;19444;50.518;10.870;2023-05-20T09:28:22;96842.56;;;15.27;100.00
32933;BME280;19444;50.518;10.870;2023-05-20T09:31:25;96840.97;;;15.05;100.00
32933;BME280;19444;50.518;10.870;2023-05-20T09:34:22;96846.38;;;15.05;100.00
32933;BME280;19444;50.518;10.870;2023-05-20T09:37:21;96834.38;;;14.94;100.00
32933;BME280;19444;50.518;10.870;2023-05-20T09:40:26;96824.38;;;15.78;100.00
32933;BME280;19444;50.518;10.870;2023-05-20T09:43:23;96826.09;;;15.41;100.00
32933;BME280;19444;50.518;10.870;2023-05-20T09:46:21;96830.47;;;15.87;100.00
32933;BME280;19444;50.518;10.870;2023-05-20T09:49:18;96833.53;;;15.44;100.00
32933;BME280;19444;50.518;10.870;2023-05-20T09:52:17;96823.09;;;16.08;100.00
32933;BME280;19444;50.518;10.870;2023-05-20T09:55:19;96819.13;;;15.93;100.00
32933;BME280;19444;50.518;10.870;2023-05-20T09:58:16;96820.50;;;15.67;100.00
32933;BME280;19444;50.518;10.870;2023-05-20T10:01:15;96816.81;;;16.16;100.00
32933;BME280;19444;50.518;10.870;2023-05-20T10:04:15;96806.75;;;16.05;100.00
32933;BME280;19444;50.518;10.870;2023-05-20T10:21:22;96790.75;;;18.22;100.00
32933;BME280;19444;50.518;10.870;2023-05-20T10:24:29;96774.56;;;18.41;100.00
32933;BME280;19444;50.518;10.870;2023-05-20T10:27:27;96783.38;;;18.69;100.00
32933;BME280;19444;50.518;10.870;2023-05-20T10:30:24;96777.16;;;18.85;100.00
32933;BME280;19444;50.518;10.870;2023-05-20T10:33:25;96780.84;;;18.61;100.00
32933;BME280;19444;50.518;10.870;2023-05-20T10:36:28;96780.34;;;18.39;100.00
32933;BME280;19444;50.518;10.870;2023-05-20T10:39:31;96783.00;;;18.87;100.00
32933;BME280;19444;50.518;10.870;2023-05-20T10:42:31;96777.94;;;19.59;100.00
32933;BME280;19444;50.518;10.870;2023-05-20T10:45:28;96776.53;;;19.11;100.00
32933;BME280;19444;50.518;10.870;2023-05-20T10:48:30;96767.63;;;20.33;94.97
32933;BME280;19444;50.518;10.870;2023-05-20T10:51:28;96765.91;;;20.48;94.32
32933;BME280;19444;50.518;10.870;2023-05-20T10:54:27;96775.16;;;20.66;91.05
32933;BME280;19444;50.518;10.870;2023-05-20T10:57:27;96766.03;;;20.32;95.49
32933;BME280;19444;50.518;10.870;2023-05-20T11:00:24;96760.97;;;21.10;94.35
32933;BME280;19444;50.518;10.870;2023-05-20T11:03:21;96747.28;;;21.03;91.15
32933;BME280;19444;50.518;10.870;2023-05-20T11:06:19;96755.28;;;21.86;80.57
32933;BME280;19444;50.518;10.870;2023-05-20T11:09:16;96757.06;;;21.71;81.84
32933;BME280;19444;50.518;10.870;2023-05-20T11:12:13;96751.06;;;20.68;93.68
32933;BME280;19444;50.518;10.870;2023-05-20T11:15:12;96741.19;;;21.43;89.59
32933;BME280;19444;50.518;10.870;2023-05-20T11:18:10;96725.34;;;22.37;82.91
32933;BME280;19444;50.518;10.870;2023-05-20T11:21:08;96731.94;;;21.55;78.92
32933;BME280;19444;50.518;10.870;2023-05-20T11:24:05;96731.22;;;21.58;85.75
32933;BME280;19444;50.518;10.870;2023-05-20T11:27:02;96721.31;;;22.21;75.09
32933;BME280;19444;50.518;10.870;2023-05-20T11:30:00;96713.56;;;22.30;78.20
32933;BME280;19444;50.518;10.870;2023-05-20T11:33:02;96712.53;;;21.60;77.70
32933;BME280;19444;50.518;10.870;2023-05-20T11:36:01;96723.28;;;21.16;88.42
32933;BME280;19444;50.518;10.870;2023-05-20T11:39:00;96726.78;;;21.46;83.99
32933;BME280;19444;50.518;10.870;2023-05-20T11:41:57;96715.47;;;21.81;81.10
32933;BME280;19444;50.518;10.870;2023-05-20T11:44:54;96726.88;;;20.63;89.79
32933;BME280;19444;50.518;10.870;2023-05-20T11:48:03;96713.34;;;22.05;84.87
32933;BME280;19444;50.518;10.870;2023-05-20T11:51:00;96707.81;;;23.04;75.64
32933;BME280;19444;50.518;10.870;2023-05-20T11:54:02;96701.47;;;22.86;70.86
32933;BME280;19444;50.518;10.870;2023-05-20T11:56:59;96696.75;;;21.80;82.00
32933;BME280;19444;50.518;10.870;2023-05-20T11:59:56;96708.16;;;21.52;79.79
32933;BME280;19444;50.518;10.870;2023-05-20T12:02:53;96701.00;;;22.18;75.90
32933;BME280;19444;50.518;10.870;2023-05-20T12:05:51;96723.06;;;21.28;84.61
32933;BME280;19444;50.518;10.870;2023-05-20T12:08:48;96707.91;;;22.53;73.56
32933;BME280;19444;50.518;10.870;2023-05-20T12:11:45;96718.22;;;22.26;83.17
32933;BME280;19444;50.518;10.870;2023-05-20T12:14:42;96718.31;;;22.95;74.08
32933;BME280;19444;50.518;10.870;2023-05-20T12:17:48;96709.09;;;23.28;67.82
32933;BME280;19444;50.518;10.870;2023-05-20T12:20:46;96712.69;;;22.70;75.47
32933;BME280;19444;50.518;10.870;2023-05-20T12:23:44;96697.03;;;23.43;71.68
32933;BME280;19444;50.518;10.870;2023-05-20T12:26:41;96697.13;;;23.68;66.77
32933;BME280;19444;50.518;10.870;2023-05-20T12:29:38;96691.69;;;24.11;66.20
32933;BME280;19444;50.518;10.870;2023-05-20T12:32:37;96686.81;;;23.26;65.33
32933;BME280;19444;50.518;10.870;2023-05-20T12:35:39;96683.38;;;23.58;65.34
32933;BME280;19444;50.518;10.870;2023-05-20T12:38:36;96683.09;;;24.27;65.99
32933;BME280;19444;50.518;10.870;2023-05-20T12:41:33;96680.19;;;23.27;66.82
32933;BME280;19444;50.518;10.870;2023-05-20T12:44:30;96691.59;;;22.67;70.41
32933;BME280;19444;50.518;10.870;2023-05-20T12:47:27;96676.03;;;23.90;65.40
32933;BME280;19444;50.518;10.870;2023-05-20T12:50:24;96672.88;;;24.70;61.03
32933;BME280;19444;50.518;10.870;2023-05-20T12:53:21;96685.63;;;23.20;70.97
32933;BME280;19444;50.518;10.870;2023-05-20T12:56:18;96664.25;;;23.54;67.38
32933;BME280;19444;50.518;10.870;2023-05-20T12:59:15;96671.59;;;23.28;69.22
32933;BME280;19444;50.518;10.870;2023-05-20T13:02:12;96663.28;;;23.00;66.35
32933;BME280;19444;50.518;10.870;2023-05-20T13:05:09;96674.75;;;22.58;69.27
32933;BME280;19444;50.518;10.870;2023-05-20T13:08:07;96669.00;;;22.74;71.82
32933;BME280;19444;50.518;10.870;2023-05-20T13:11:06;96666.53;;;22.51;74.00
32933;BME280;19444;50.518;10.870;2023-05-20T13:14:03;96670.78;;;22.48;78.63
32933;BME280;19444;50.518;10.870;2023-05-20T13:16:59;96666.91;;;22.01;83.72
32933;BME280;19444;50.518;10.870;2023-05-20T13:19:57;96662.41;;;22.20;88.78
32933;BME280;19444;50.518;10.870;2023-05-20T13:22:54;96666.19;;;21.60;86.62
32933;BME280;19444;50.518;10.870;2023-05-20T13:25:51;96668.16;;;22.62;82.37
32933;BME280;19444;50.518;10.870;2023-05-20T13:28:49;96667.16;;;22.26;79.50
32933;BME280;19444;50.518;10.870;2023-05-20T13:31:46;96673.78;;;22.25;91.51
32933;BME280;19444;50.518;10.870;2023-05-20T13:34:43;96656.88;;;23.76;76.63
32933;BME280;19444;50.518;10.870;2023-05-20T13:37:40;96665.13;;;22.20;87.46
32933;BME280;19444;50.518;10.870;2023-05-20T13:40:37;96650.78;;;23.03;79.21
32933;BME280;19444;50.518;10.870;2023-05-20T13:43:34;96655.09;;;23.00;79.24
32933;BME280;19444;50.518;10.870;2023-05-20T13:46:31;96647.47;;;23.77;70.49
32933;BME280;19444;50.518;10.870;2023-05-20T13:49:29;96645.53;;;23.74;74.93
32933;BME280;19444;50.518;10.870;2023-05-20T13:52:26;96642.03;;;23.91;68.08
32933;BME280;19444;50.518;10.870;2023-05-20T13:55:23;96631.75;;;24.66;61.97
32933;BME280;19444;50.518;10.870;2023-05-20T13:58:20;96634.84;;;23.22;74.84
32933;BME280;19444;50.518;10.870;2023-05-20T14:01:17;96633.03;;;24.05;74.11
32933;BME280;19444;50.518;10.870;2023-05-20T14:04:14;96618.16;;;23.99;72.61
32933;BME280;19444;50.518;10.870;2023-05-20T14:07:12;96629.00;;;23.24;80.02
32933;BME280;19444;50.518;10.870;2023-05-20T14:10:09;96621.63;;;23.56;73.93
32933;BME280;19444;50.518;10.870;2023-05-20T14:13:07;96631.31;;;23.08;83.99
32933;BME280;19444;50.518;10.870;2023-05-20T14:16:06;96620.31;;;22.93;82.75
32933;BME280;19444;50.518;10.870;2023-05-20T14:19:03;96617.78;;;23.82;67.59
32933;BME280;19444;50.518;10.870;2023-05-20T14:22:02;96620.91;;;23.84;72.80
32933;BME280;19444;50.518;10.870;2023-05-20T14:24:59;96612.72;;;23.88;69.58
32933;BME280;19444;50.518;10.870;2023-05-20T14:27:56;96606.78;;;23.54;78.74
32933;BME280;19444;50.518;10.870;2023-05-20T14:30:53;96614.09;;;22.27;91.14
32933;BME280;19444;50.518;10.870;2023-05-20T14:33:50;96606.69;;;23.11;82.39
32933;BME280;19444;50.518;10.870;2023-05-20T14:36:47;96605.59;;;23.37;79.04
32933;BME280;19444;50.518;10.870;2023-05-20T14:39:44;96601.34;;;23.86;79.99
32933;BME280;19444;50.518;10.870;2023-05-20T14:42:41;96602.81;;;23.16;92.43
32933;BME280;19444;50.518;10.870;2023-05-20T14:45:37;96594.66;;;23.34;82.65
32933;BME280;19444;50.518;10.870;2023-05-20T14:48:34;96591.53;;;24.24;76.59
32933;BME280;19444;50.518;10.870;2023-05-20T14:51:31;96592.28;;;23.14;90.22
32933;BME280;19444;50.518;10.870;2023-05-20T14:54:28;96601.03;;;21.99;91.94
32933;BME280;19444;50.518;10.870;2023-05-20T14:57:25;96572.44;;;23.64;82.65
32933;BME280;19444;50.518;10.870;2023-05-20T15:00:22;96584.47;;;23.16;82.21
32933;BME280;19444;50.518;10.870;2023-05-20T15:03:19;96584.88;;;23.25;84.49
32933;BME280;19444;50.518;10.870;2023-05-20T15:06:16;96577.00;;;23.03;87.66
32933;BME280;19444;50.518;10.870;2023-05-20T15:09:13;96575.44;;;22.22;94.78
32933;BME280;19444;50.518;10.870;2023-05-20T15:12:10;96584.66;;;22.03;93.45
32933;BME280;19444;50.518;10.870;2023-05-20T15:15:09;96580.22;;;22.39;90.13
32933;BME280;19444;50.518;10.870;2023-05-20T15:18:06;96573.25;;;22.41;88.54
32933;BME280;19444;50.518;10.870;2023-05-20T15:21:03;96583.22;;;21.65;97.37
32933;BME280;19444;50.518;10.870;2023-05-20T15:24:00;96593.78;;;21.70;97.21
32933;BME280;19444;50.518;10.870;2023-05-20T15:26:57;96581.47;;;21.90;100.00
32933;BME280;19444;50.518;10.870;2023-05-20T15:29:54;96586.03;;;22.27;96.90
32933;BME280;19444;50.518;10.870;2023-05-20T15:32:51;96593.44;;;21.31;100.00
32933;BME280;19444;50.518;10.870;2023-05-20T15:35:49;96580.28;;;21.88;98.34